CN-0006 weather

Beijing Shahezhen Air Base
Beijing, Beijing Municipality, China

Public forecast

Using degrees Celsius for public forecast. Weather courtesy of forecast.io.

Closest aviation weather report (METAR) to Beijing Shahezhen Air Base

Closest report is Beijing Capital International Airport, 12.8 nm (23.7 km) ESE. Retrieved 2020/07/07 00:00 UTC (11 minutes ago):

ZBAA 070000Z 01004MPS 340V050 CAVOK 27/18 Q1007 NOSIG

Closest aviation forecast (TAF) to Beijing Shahezhen Air Base

Closest forecast is Beijing Capital International Airport, 12.8 nm (23.7 km) ESE. Retrieved 2020-07-07 00:03 UTC (8 minutes ago):

TAF TAF ZBAA 062103Z 0700/0724 16004MPS CAVOK TX34/0707Z TN21/0721Z